createdAt,value
2019-05-20T00:00:30.436Z,0.00
2019-05-20T00:01:30.423Z,0.00
2019-05-20T00:02:30.415Z,0.00
2019-05-20T00:03:30.406Z,0.00
2019-05-20T00:04:30.389Z,0.00
2019-05-20T00:05:30.407Z,0.00
2019-05-20T00:06:30.367Z,0.00
2019-05-20T00:07:30.362Z,0.00
2019-05-20T00:08:30.348Z,0.00
2019-05-20T00:09:30.337Z,0.00
2019-05-20T00:10:30.336Z,0.00
2019-05-20T00:11:30.315Z,0.00
2019-05-20T00:12:30.302Z,0.00
2019-05-20T00:13:30.294Z,0.00
2019-05-20T00:14:30.281Z,0.00
2019-05-20T00:15:30.272Z,0.00
2019-05-20T00:16:30.261Z,0.00
2019-05-20T00:17:30.250Z,0.00
2019-05-20T00:18:30.240Z,0.00
2019-05-20T00:19:30.228Z,0.00
2019-05-20T00:20:30.213Z,0.00
2019-05-20T00:21:30.203Z,0.00
2019-05-20T00:22:30.196Z,0.00
2019-05-20T00:23:30.182Z,0.00
2019-05-20T00:24:30.176Z,0.00
2019-05-20T00:25:30.161Z,0.00
2019-05-20T00:26:30.149Z,0.00
2019-05-20T00:27:30.137Z,0.00
2019-05-20T00:28:30.137Z,0.00
2019-05-20T00:29:30.116Z,0.00
2019-05-20T00:30:30.108Z,0.00
2019-05-20T00:31:30.097Z,0.00
2019-05-20T00:32:40.596Z,0.00
2019-05-20T00:33:31.082Z,0.00
2019-05-20T00:34:35.000Z,0.00
2019-05-20T00:35:31.052Z,0.00
2019-05-20T00:36:30.044Z,0.00
2019-05-20T00:37:30.039Z,0.00
2019-05-20T00:38:30.026Z,0.00
2019-05-20T00:39:30.012Z,0.00
2019-05-20T00:40:30.029Z,0.00
2019-05-20T00:41:29.985Z,0.00
2019-05-20T00:42:29.976Z,0.00
2019-05-20T00:43:29.982Z,0.00
2019-05-20T00:44:29.950Z,0.00
2019-05-20T00:45:29.946Z,0.00
2019-05-20T00:46:29.941Z,0.00
2019-05-20T00:47:29.918Z,0.00
2019-05-20T00:48:29.909Z,0.00
2019-05-20T00:49:29.896Z,0.00
2019-05-20T00:50:29.892Z,0.00
2019-05-20T00:51:29.880Z,0.00
2019-05-20T00:52:29.865Z,0.00
2019-05-20T00:53:29.853Z,0.00
2019-05-20T00:54:29.843Z,0.00
2019-05-20T00:55:29.836Z,0.00
2019-05-20T00:56:29.822Z,0.00
2019-05-20T00:57:29.835Z,0.00
2019-05-20T00:58:29.805Z,0.00
2019-05-20T00:59:29.793Z,0.00
2019-05-20T01:00:29.780Z,0.00
2019-05-20T01:01:29.770Z,0.00
2019-05-20T01:02:29.763Z,0.00
2019-05-20T01:03:29.753Z,0.00
2019-05-20T01:04:29.753Z,0.00
2019-05-20T01:05:29.724Z,0.00
2019-05-20T01:06:29.718Z,0.00
2019-05-20T01:07:29.701Z,0.00
2019-05-20T01:08:29.692Z,0.00
2019-05-20T01:09:29.680Z,0.00
2019-05-20T01:10:29.704Z,0.00
2019-05-20T01:11:29.663Z,0.00
2019-05-20T01:12:29.647Z,0.00
2019-05-20T01:13:29.634Z,0.00
2019-05-20T01:14:29.627Z,0.00
2019-05-20T01:15:29.617Z,0.00
2019-05-20T01:16:29.603Z,0.00
2019-05-20T01:17:29.591Z,0.00
2019-05-20T01:18:29.583Z,0.00
2019-05-20T01:19:29.566Z,0.00
2019-05-20T01:20:29.558Z,0.00
2019-05-20T01:21:29.547Z,0.00
2019-05-20T01:22:29.535Z,0.00
2019-05-20T01:23:29.530Z,0.00
2019-05-20T01:24:29.566Z,0.00
2019-05-20T01:25:29.510Z,0.00
2019-05-20T01:26:29.495Z,0.00
2019-05-20T01:27:29.517Z,0.00
2019-05-20T01:28:29.472Z,0.00
2019-05-20T01:29:29.457Z,0.00
2019-05-20T01:30:29.446Z,0.00
2019-05-20T01:31:29.446Z,0.00
2019-05-20T01:32:29.439Z,0.00
2019-05-20T01:33:29.421Z,0.00
2019-05-20T01:34:29.409Z,0.00
2019-05-20T01:35:29.402Z,0.00
2019-05-20T01:36:29.391Z,0.00
2019-05-20T01:37:29.374Z,0.00
2019-05-20T01:38:29.364Z,0.00
2019-05-20T01:39:29.474Z,0.00
2019-05-20T01:40:29.339Z,0.00
2019-05-20T01:41:29.329Z,0.00
2019-05-20T01:42:29.321Z,0.00
2019-05-20T01:43:29.308Z,0.00
2019-05-20T01:44:29.299Z,0.00
2019-05-20T01:45:29.324Z,0.00
2019-05-20T01:46:29.274Z,0.00
2019-05-20T01:47:29.267Z,0.00
2019-05-20T01:48:29.259Z,0.00
2019-05-20T01:49:29.250Z,0.00
2019-05-20T01:50:29.235Z,0.00
2019-05-20T01:51:29.236Z,0.00
2019-05-20T01:52:29.216Z,0.00
2019-05-20T01:53:29.207Z,0.00
2019-05-20T01:54:29.193Z,0.00
2019-05-20T01:55:29.175Z,0.00
2019-05-20T01:56:29.168Z,0.00
2019-05-20T01:57:29.160Z,0.00
2019-05-20T01:58:29.148Z,0.00
2019-05-20T01:59:29.135Z,0.00
2019-05-20T02:00:29.124Z,0.00
2019-05-20T02:01:29.112Z,0.00
2019-05-20T02:02:29.104Z,0.00
2019-05-20T02:03:32.134Z,0.00
2019-05-20T02:04:29.082Z,0.00
2019-05-20T02:05:29.074Z,0.00
2019-05-20T02:06:29.056Z,0.00
2019-05-20T02:07:29.048Z,0.00
2019-05-20T02:08:29.040Z,0.00
2019-05-20T02:09:29.026Z,0.00
2019-05-20T02:10:29.013Z,0.00
2019-05-20T02:11:29.006Z,0.00
2019-05-20T02:12:28.995Z,0.00
2019-05-20T02:13:28.982Z,0.00
2019-05-20T02:14:28.976Z,0.00
2019-05-20T02:15:28.969Z,0.00
2019-05-20T02:16:28.949Z,0.00
2019-05-20T02:17:28.945Z,0.00
2019-05-20T02:18:28.943Z,0.00
2019-05-20T02:19:28.924Z,0.00
2019-05-20T02:20:28.910Z,0.00
2019-05-20T02:21:28.903Z,0.00
2019-05-20T02:22:28.886Z,0.00
2019-05-20T02:23:28.872Z,0.00
2019-05-20T02:24:28.860Z,0.00
2019-05-20T02:25:28.863Z,4.00
2019-05-20T02:26:28.841Z,4.00
2019-05-20T02:27:28.828Z,4.00
2019-05-20T02:28:28.824Z,0.00
2019-05-20T02:29:28.833Z,4.00
2019-05-20T02:30:28.803Z,4.00
2019-05-20T02:31:28.794Z,4.00
2019-05-20T02:32:28.796Z,4.00
2019-05-20T02:33:28.768Z,4.00
2019-05-20T02:34:28.755Z,4.00
2019-05-20T02:35:28.744Z,8.00
2019-05-20T02:36:28.740Z,8.00
2019-05-20T02:37:28.722Z,12.00
2019-05-20T02:38:28.712Z,12.00
2019-05-20T02:39:28.703Z,12.00
2019-05-20T02:40:28.688Z,16.00
2019-05-20T02:41:28.679Z,16.00
2019-05-20T02:42:28.667Z,16.00
2019-05-20T02:43:28.658Z,20.00
2019-05-20T02:44:28.648Z,24.00
2019-05-20T02:45:28.635Z,28.00
2019-05-20T02:46:28.627Z,32.00
2019-05-20T02:47:28.624Z,36.00
2019-05-20T02:48:28.602Z,40.00
2019-05-20T02:49:28.589Z,44.00
2019-05-20T02:50:28.581Z,52.00
2019-05-20T02:51:28.573Z,56.00
2019-05-20T02:52:28.559Z,64.00
2019-05-20T02:53:28.542Z,68.00
2019-05-20T02:54:28.534Z,76.00
2019-05-20T02:55:28.529Z,84.00
2019-05-20T02:56:28.522Z,88.00
2019-05-20T02:57:28.504Z,100.00
2019-05-20T02:58:28.490Z,108.00
2019-05-20T02:59:28.477Z,116.00
2019-05-20T03:00:28.470Z,124.00
2019-05-20T03:01:28.458Z,132.00
2019-05-20T03:02:28.449Z,140.00
2019-05-20T03:03:28.438Z,148.00
2019-05-20T03:04:28.428Z,156.00
2019-05-20T03:05:28.419Z,172.00
2019-05-20T03:06:28.405Z,180.00
2019-05-20T03:07:28.397Z,196.00
2019-05-20T03:08:28.388Z,208.00
2019-05-20T03:09:28.371Z,224.00
2019-05-20T03:10:28.372Z,244.00
2019-05-20T03:11:28.353Z,260.00
2019-05-20T03:12:28.346Z,280.00
2019-05-20T03:13:28.333Z,296.00
2019-05-20T03:14:28.320Z,316.00
2019-05-20T03:15:28.310Z,340.00
2019-05-20T03:16:28.298Z,360.00
2019-05-20T03:17:28.294Z,384.00
2019-05-20T03:18:28.307Z,412.00
2019-05-20T03:19:28.269Z,432.00
2019-05-20T03:20:28.253Z,464.00
2019-05-20T03:21:28.246Z,496.00
2019-05-20T03:22:28.228Z,524.00
2019-05-20T03:23:28.222Z,552.00
2019-05-20T03:24:28.209Z,584.00
2019-05-20T03:25:28.200Z,616.00
2019-05-20T03:26:28.192Z,648.00
2019-05-20T03:27:28.178Z,692.00
2019-05-20T03:28:28.164Z,732.00
2019-05-20T03:29:28.156Z,780.00
2019-05-20T03:30:28.144Z,832.00
2019-05-20T03:31:28.140Z,880.00
2019-05-20T03:32:28.125Z,932.00
2019-05-20T03:33:28.127Z,980.00
2019-05-20T03:34:45.715Z,1032.00
2019-05-20T03:35:29.113Z,1084.00
2019-05-20T03:36:28.079Z,1136.00
2019-05-20T03:37:28.068Z,1180.00
2019-05-20T03:38:28.054Z,1224.00
2019-05-20T03:39:28.052Z,1264.00
2019-05-20T03:40:28.042Z,1300.00
2019-05-20T03:41:28.030Z,1344.00
2019-05-20T03:42:28.021Z,1380.00
2019-05-20T03:43:28.004Z,1412.00
2019-05-20T03:44:27.988Z,1440.00
2019-05-20T03:45:27.975Z,1472.00
2019-05-20T03:46:27.968Z,1500.00
2019-05-20T03:47:27.965Z,1528.00
2019-05-20T03:48:27.949Z,1560.00
2019-05-20T03:49:27.944Z,1592.00
2019-05-20T03:50:27.928Z,1628.00
2019-05-20T03:51:27.917Z,1644.00
2019-05-20T03:52:27.903Z,1672.00
2019-05-20T03:53:27.921Z,1688.00
2019-05-20T03:54:27.886Z,1708.00
2019-05-20T03:55:27.874Z,1740.00
2019-05-20T03:56:27.861Z,1780.00
2019-05-20T03:57:27.852Z,1832.00
2019-05-20T03:58:27.836Z,1920.00
2019-05-20T03:59:27.850Z,2004.00
2019-05-20T04:00:27.825Z,2072.00
2019-05-20T04:01:27.809Z,2128.00
2019-05-20T04:02:27.801Z,2172.00
2019-05-20T04:03:27.784Z,2200.00
2019-05-20T04:04:27.775Z,2216.00
2019-05-20T04:05:27.766Z,2240.00
2019-05-20T04:06:27.758Z,2268.00
2019-05-20T04:07:27.739Z,2304.00
2019-05-20T04:08:27.729Z,2420.00
2019-05-20T04:09:27.719Z,2488.00
2019-05-20T04:10:27.709Z,2524.00
2019-05-20T04:11:27.704Z,2552.00
2019-05-20T04:12:27.684Z,2584.00
2019-05-20T04:13:27.685Z,2616.00
2019-05-20T04:14:27.669Z,2656.00
2019-05-20T04:15:27.653Z,2700.00
2019-05-20T04:16:27.648Z,2724.00
2019-05-20T04:17:27.641Z,2768.00
2019-05-20T04:18:27.622Z,2844.00
2019-05-20T04:19:27.613Z,2888.00
2019-05-20T04:20:27.599Z,2908.00
2019-05-20T04:21:27.602Z,2928.00
2019-05-20T04:22:27.587Z,2960.00
2019-05-20T04:23:27.567Z,2972.00
2019-05-20T04:24:27.556Z,3024.00
2019-05-20T04:25:27.545Z,3088.00
2019-05-20T04:26:27.537Z,3124.00
2019-05-20T04:27:27.521Z,3144.00
2019-05-20T04:28:27.514Z,3160.00
2019-05-20T04:29:27.511Z,3152.00
2019-05-20T04:30:27.489Z,3104.00
2019-05-20T04:31:27.478Z,2976.00
2019-05-20T04:32:27.468Z,2892.00
2019-05-20T04:33:27.456Z,2816.00
2019-05-20T04:34:27.446Z,2760.00
2019-05-20T04:35:27.440Z,2744.00
2019-05-20T04:36:27.429Z,2688.00
2019-05-20T04:37:27.415Z,2700.00
2019-05-20T04:38:27.402Z,2676.00
2019-05-20T04:39:27.394Z,2696.00
2019-05-20T04:40:27.377Z,2780.00
2019-05-20T04:41:27.379Z,2832.00
2019-05-20T04:42:27.361Z,2884.00
2019-05-20T04:43:27.344Z,2928.00
2019-05-20T04:44:27.337Z,3028.00
2019-05-20T04:45:27.342Z,3160.00
2019-05-20T04:46:27.313Z,3268.00
2019-05-20T04:47:27.311Z,3296.00
2019-05-20T04:48:27.296Z,3320.00
2019-05-20T04:49:27.285Z,3288.00
2019-05-20T04:50:27.270Z,3248.00
2019-05-20T04:51:27.273Z,3232.00
2019-05-20T04:52:27.264Z,3240.00
2019-05-20T04:53:27.239Z,3336.00
2019-05-20T04:54:27.234Z,3408.00
2019-05-20T04:55:27.219Z,3512.00
2019-05-20T04:56:29.322Z,3668.00
2019-05-20T04:57:27.195Z,3824.00
2019-05-20T04:58:27.184Z,4004.00
2019-05-20T04:59:27.196Z,4192.00
2019-05-20T05:00:27.171Z,4356.00
2019-05-20T05:01:27.150Z,4468.00
2019-05-20T05:02:27.138Z,4552.00
2019-05-20T05:03:27.129Z,4672.00
2019-05-20T05:04:27.123Z,4776.00
2019-05-20T05:05:37.068Z,4952.00
2019-05-20T05:06:28.101Z,5148.00
2019-05-20T05:07:27.088Z,5360.00
2019-05-20T05:08:27.079Z,5452.00
2019-05-20T05:09:27.060Z,5528.00
2019-05-20T05:10:27.053Z,5944.00
2019-05-20T05:11:27.043Z,6252.00
2019-05-20T05:12:27.038Z,6464.00
2019-05-20T05:13:27.027Z,6540.00
2019-05-20T05:14:27.102Z,6504.00
2019-05-20T05:15:27.163Z,6644.00
2019-05-20T05:16:27.069Z,6532.00
2019-05-20T05:17:27.028Z,5276.00
2019-05-20T05:18:27.131Z,5288.00
2019-05-20T05:19:27.045Z,5656.00
2019-05-20T05:20:26.942Z,6072.00
2019-05-20T05:21:26.936Z,6012.00
2019-05-20T05:22:26.921Z,5824.00
2019-05-20T05:23:26.913Z,5356.00
2019-05-20T05:24:26.898Z,4908.00
2019-05-20T05:25:26.890Z,4536.00
2019-05-20T05:26:26.879Z,4536.00
2019-05-20T05:27:26.865Z,4480.00
2019-05-20T05:28:26.859Z,4612.00
2019-05-20T05:29:26.848Z,4656.00
2019-05-20T05:30:26.838Z,4540.00
2019-05-20T05:31:26.820Z,4420.00
2019-05-20T05:32:26.817Z,4636.00
2019-05-20T05:33:26.805Z,4780.00
2019-05-20T05:34:26.794Z,5108.00
2019-05-20T05:35:26.782Z,5748.00
2019-05-20T05:36:26.770Z,6288.00
2019-05-20T05:37:26.766Z,7064.00
2019-05-20T05:38:26.745Z,7556.00
2019-05-20T05:39:26.758Z,7916.00
2019-05-20T05:40:26.724Z,7620.00
2019-05-20T05:41:26.718Z,7372.00
2019-05-20T05:42:26.704Z,7396.00
2019-05-20T05:43:26.701Z,7688.00
2019-05-20T05:44:26.691Z,7748.00
2019-05-20T05:45:29.160Z,7716.00
2019-05-20T05:46:26.690Z,7520.00
2019-05-20T05:47:26.658Z,7260.00
2019-05-20T05:48:26.643Z,7004.00
2019-05-20T05:49:26.641Z,6968.00
2019-05-20T05:50:26.612Z,7060.00
2019-05-20T05:51:26.609Z,7132.00
2019-05-20T05:52:26.598Z,7028.00
2019-05-20T05:53:26.581Z,6724.00
2019-05-20T05:54:26.578Z,6720.00
2019-05-20T05:55:26.563Z,7000.00
2019-05-20T05:56:26.548Z,6704.00
2019-05-20T05:57:26.541Z,6304.00
2019-05-20T05:58:26.530Z,5824.00
2019-05-20T05:59:26.516Z,5824.00
2019-05-20T06:00:26.795Z,6408.00
2019-05-20T06:01:26.536Z,6564.00
2019-05-20T06:02:26.496Z,7136.00
2019-05-20T06:03:26.489Z,7044.00
2019-05-20T06:04:26.467Z,7024.00
2019-05-20T06:05:26.453Z,8152.00
2019-05-20T06:06:26.439Z,8052.00
2019-05-20T06:07:26.425Z,8200.00
2019-05-20T06:08:26.418Z,8232.00
2019-05-20T06:09:26.404Z,8172.00
2019-05-20T06:10:26.409Z,8716.00
2019-05-20T06:11:26.383Z,8800.00
2019-05-20T06:12:26.379Z,9676.00
2019-05-20T06:13:26.361Z,9928.00
2019-05-20T06:14:26.352Z,9948.00
2019-05-20T06:15:26.341Z,9732.00
2019-05-20T06:16:35.895Z,9928.00
2019-05-20T06:17:27.328Z,10032.00
2019-05-20T06:18:26.331Z,10068.00
2019-05-20T06:19:26.318Z,10068.00
2019-05-20T06:20:26.287Z,10044.00
2019-05-20T06:21:26.278Z,10056.00
2019-05-20T06:22:26.268Z,10152.00
2019-05-20T06:23:26.255Z,10008.00
2019-05-20T06:24:26.242Z,9792.00
2019-05-20T06:25:26.233Z,10360.00
2019-05-20T06:26:26.223Z,10688.00
2019-05-20T06:27:26.210Z,10740.00
2019-05-20T06:28:26.209Z,10976.00
2019-05-20T06:29:26.198Z,11136.00
2019-05-20T06:30:26.178Z,11344.00
2019-05-20T06:31:26.168Z,11352.00
2019-05-20T06:32:26.170Z,10568.00
2019-05-20T06:33:26.147Z,9188.00
2019-05-20T06:34:26.137Z,11416.00
2019-05-20T06:35:26.129Z,11612.00
2019-05-20T06:36:27.299Z,12040.00
2019-05-20T06:37:26.102Z,12296.00
2019-05-20T06:38:26.091Z,12288.00
2019-05-20T06:39:26.084Z,12080.00
2019-05-20T06:40:26.152Z,11176.00
2019-05-20T06:41:26.057Z,11064.00
2019-05-20T06:42:26.069Z,12216.00
2019-05-20T06:43:26.062Z,12548.00
2019-05-20T06:44:26.029Z,12908.00
2019-05-20T06:45:26.016Z,10880.00
2019-05-20T06:46:26.006Z,9352.00
2019-05-20T06:47:26.028Z,12336.00
2019-05-20T06:48:25.982Z,9968.00
2019-05-20T06:49:25.973Z,8284.00
2019-05-20T06:50:29.494Z,9152.00
2019-05-20T06:51:25.951Z,10708.00
2019-05-20T06:52:35.480Z,11916.00
2019-05-20T06:53:26.968Z,12964.00
2019-05-20T06:54:25.916Z,12472.00
2019-05-20T06:55:25.909Z,11556.00
2019-05-20T06:56:25.901Z,13008.00
2019-05-20T06:57:25.937Z,13920.00
2019-05-20T06:58:25.963Z,14436.00
2019-05-20T06:59:25.861Z,14732.00
2019-05-20T07:00:25.885Z,14776.00
2019-05-20T07:01:25.857Z,15108.00
2019-05-20T07:02:25.893Z,15336.00
2019-05-20T07:03:25.848Z,15408.00
2019-05-20T07:04:25.813Z,15464.00
2019-05-20T07:05:25.795Z,15496.00
2019-05-20T07:06:25.789Z,15260.00
2019-05-20T07:07:25.777Z,14364.00
2019-05-20T07:08:25.841Z,15056.00
2019-05-20T07:09:25.764Z,14548.00
2019-05-20T07:10:25.751Z,14824.00
2019-05-20T07:11:25.738Z,15008.00
2019-05-20T07:12:40.203Z,13624.00
2019-05-20T07:13:26.709Z,14384.00
2019-05-20T07:14:25.705Z,13404.00
2019-05-20T07:15:25.690Z,12680.00
2019-05-20T07:16:25.684Z,12124.00
2019-05-20T07:17:25.670Z,13676.00
2019-05-20T07:18:27.553Z,15352.00
2019-05-20T07:19:25.705Z,17152.00
2019-05-20T07:20:25.704Z,17088.00
2019-05-20T07:21:25.663Z,17440.00
2019-05-20T07:22:25.620Z,16608.00
2019-05-20T07:23:25.634Z,16736.00
2019-05-20T07:24:25.600Z,16292.00
2019-05-20T07:25:25.636Z,15668.00
2019-05-20T07:26:25.570Z,15288.00
2019-05-20T07:27:25.562Z,16608.00
2019-05-20T07:28:25.547Z,17696.00
2019-05-20T07:29:25.591Z,17280.00
2019-05-20T07:30:25.534Z,18304.00
2019-05-20T07:31:25.517Z,18976.00
2019-05-20T07:32:25.505Z,19392.00
2019-05-20T07:33:25.496Z,19552.00
2019-05-20T07:34:25.645Z,20032.00
2019-05-20T07:35:30.652Z,20320.00
2019-05-20T07:36:26.494Z,20512.00
2019-05-20T07:37:25.505Z,20256.00
2019-05-20T07:38:25.440Z,20576.00
2019-05-20T07:39:25.461Z,21280.00
2019-05-20T07:40:25.427Z,21312.00
2019-05-20T07:41:25.414Z,21024.00
2019-05-20T07:42:25.403Z,21024.00
2019-05-20T07:43:25.400Z,21376.00
2019-05-20T07:44:25.398Z,21696.00
2019-05-20T07:45:25.377Z,21696.00
2019-05-20T07:46:25.364Z,21856.00
2019-05-20T07:47:25.366Z,22464.00
2019-05-20T07:48:25.368Z,22816.00
2019-05-20T07:49:25.921Z,28800.00
2019-05-20T07:50:25.318Z,32704.00
2019-05-20T07:51:25.311Z,36704.00
2019-05-20T07:52:25.293Z,42944.00
2019-05-20T07:53:25.281Z,45632.00
2019-05-20T07:54:25.275Z,58816.00
2019-05-20T07:55:25.269Z,67232.00
2019-05-20T07:56:25.266Z,62176.00
2019-05-20T07:57:25.379Z,69472.00
2019-05-20T07:58:25.234Z,68992.00
2019-05-20T07:59:25.218Z,78400.00
2019-05-20T08:00:25.209Z,79680.00
2019-05-20T08:01:25.196Z,84320.00
2019-05-20T08:02:25.198Z,83328.00
2019-05-20T08:03:25.186Z,78784.00
2019-05-20T08:04:25.234Z,83488.00
2019-05-20T08:05:25.155Z,87136.00
2019-05-20T08:06:25.225Z,87680.00
2019-05-20T08:07:30.176Z,79648.00
2019-05-20T08:08:26.145Z,79136.00
2019-05-20T08:09:25.204Z,72064.00
2019-05-20T08:10:25.102Z,77696.00
2019-05-20T08:11:25.091Z,80992.00
2019-05-20T08:12:25.081Z,82560.00
2019-05-20T08:13:25.079Z,81536.00
2019-05-20T08:14:25.062Z,85120.00
2019-05-20T08:15:25.059Z,84416.00
2019-05-20T08:16:25.045Z,82208.00
2019-05-20T08:17:25.033Z,81312.00
2019-05-20T08:18:25.025Z,80288.00
2019-05-20T08:19:25.017Z,81696.00
2019-05-20T08:20:25.007Z,85536.00
2019-05-20T08:21:24.998Z,85280.00
2019-05-20T08:22:24.985Z,85280.00
2019-05-20T08:23:24.978Z,82656.00
2019-05-20T08:24:24.968Z,81792.00
2019-05-20T08:25:24.963Z,89120.00
2019-05-20T08:26:24.970Z,88544.00
2019-05-20T08:27:24.944Z,85376.00
2019-05-20T08:28:24.925Z,86912.00
2019-05-20T08:29:24.917Z,87584.00
2019-05-20T08:30:24.909Z,88768.00
2019-05-20T08:31:24.912Z,87360.00
2019-05-20T08:32:25.069Z,92000.00
2019-05-20T08:33:24.876Z,91040.00
2019-05-20T08:34:24.864Z,96416.00
2019-05-20T08:35:24.857Z,97120.00
2019-05-20T08:36:24.862Z,98048.00
2019-05-20T08:37:24.834Z,97856.00
2019-05-20T08:38:24.825Z,97408.00
2019-05-20T08:39:24.812Z,95808.00
2019-05-20T08:40:24.815Z,92800.00
2019-05-20T08:41:24.817Z,93824.00
2019-05-20T08:42:24.783Z,94912.00
2019-05-20T08:43:24.773Z,96256.00
2019-05-20T08:44:24.762Z,77408.00
2019-05-20T08:45:24.752Z,71072.00
2019-05-20T08:46:24.763Z,99904.00
2019-05-20T08:47:24.734Z,96512.00
2019-05-20T08:48:24.732Z,99776.00
2019-05-20T08:49:24.715Z,100736.00
2019-05-20T08:50:24.703Z,101728.00
2019-05-20T08:51:24.698Z,103136.00
2019-05-20T08:52:24.686Z,95776.00
2019-05-20T08:53:24.682Z,97568.00
2019-05-20T08:54:24.700Z,97152.00
2019-05-20T08:55:24.671Z,98528.00
2019-05-20T08:56:24.650Z,100128.00
2019-05-20T08:57:24.636Z,104512.00
2019-05-20T08:58:24.688Z,102240.00
2019-05-20T08:59:24.617Z,102432.00
2019-05-20T09:00:25.093Z,100800.00
2019-05-20T09:01:24.606Z,103136.00
2019-05-20T09:02:24.624Z,99104.00
2019-05-20T09:03:24.583Z,95360.00
2019-05-20T09:04:24.575Z,91360.00
2019-05-20T09:05:27.837Z,91552.00
2019-05-20T09:06:24.555Z,96416.00
2019-05-20T09:07:24.552Z,91936.00
2019-05-20T09:08:24.551Z,92416.00
2019-05-20T09:09:24.646Z,96640.00
2019-05-20T09:10:24.517Z,97792.00
2019-05-20T09:11:24.505Z,96608.00
2019-05-20T09:12:24.602Z,99296.00
2019-05-20T09:13:24.490Z,85792.00
2019-05-20T09:14:24.486Z,90944.00
2019-05-20T09:15:24.469Z,91232.00
2019-05-20T09:16:24.462Z,97696.00
2019-05-20T09:17:24.458Z,101248.00
2019-05-20T09:18:24.441Z,105280.00
2019-05-20T09:19:24.438Z,107392.00
2019-05-20T09:20:24.653Z,106816.00
2019-05-20T09:21:24.413Z,105184.00
2019-05-20T09:22:24.402Z,108224.00
2019-05-20T09:23:24.421Z,103424.00
2019-05-20T09:24:24.391Z,108064.00
2019-05-20T09:25:24.377Z,115104.00
2019-05-20T09:26:24.375Z,82816.00
2019-05-20T09:27:24.397Z,72640.00
2019-05-20T09:28:24.348Z,67264.00
2019-05-20T09:29:24.339Z,65152.00
2019-05-20T09:30:24.329Z,78240.00
2019-05-20T09:31:24.318Z,54752.00
2019-05-20T09:32:24.308Z,67008.00
2019-05-20T09:33:24.313Z,109792.00
2019-05-20T09:34:24.343Z,107808.00
2019-05-20T09:35:24.280Z,47552.00
2019-05-20T09:36:26.048Z,96768.00
2019-05-20T09:37:24.260Z,106816.00
2019-05-20T09:38:24.255Z,100096.00
2019-05-20T09:39:24.240Z,93728.00
2019-05-20T09:40:24.389Z,81952.00
2019-05-20T09:41:24.224Z,98528.00
2019-05-20T09:42:24.210Z,85792.00
2019-05-20T09:43:24.200Z,103232.00
2019-05-20T09:44:24.192Z,97504.00
2019-05-20T09:45:24.190Z,103200.00
2019-05-20T09:46:24.199Z,101152.00
2019-05-20T09:47:24.164Z,92512.00
2019-05-20T09:48:25.250Z,106528.00
2019-05-20T09:49:24.213Z,98560.00
2019-05-20T09:50:24.133Z,102208.00
2019-05-20T09:51:24.128Z,108064.00
2019-05-20T09:52:24.163Z,87072.00
2019-05-20T09:53:24.125Z,90400.00
2019-05-20T09:54:24.095Z,65600.00
2019-05-20T09:55:24.113Z,106688.00
2019-05-20T09:56:24.073Z,112064.00
2019-05-20T09:57:24.063Z,121504.00
2019-05-20T09:58:24.056Z,123040.00
2019-05-20T09:59:24.067Z,117056.00
2019-05-20T10:00:24.034Z,122720.00
2019-05-20T10:01:24.029Z,115904.00
2019-05-20T10:02:33.735Z,107392.00
2019-05-20T10:03:25.004Z,128480.00
2019-05-20T10:04:24.003Z,60096.00
2019-05-20T10:05:23.991Z,128608.00
2019-05-20T10:06:23.982Z,123008.00
2019-05-20T10:07:23.977Z,116192.00
2019-05-20T10:08:37.418Z,117888.00
2019-05-20T10:09:24.949Z,115616.00
2019-05-20T10:10:23.945Z,102656.00
2019-05-20T10:11:23.931Z,113120.00
2019-05-20T10:12:23.927Z,82720.00
2019-05-20T10:13:23.913Z,97408.00
2019-05-20T10:14:23.906Z,96416.00
2019-05-20T10:15:23.900Z,114752.00
2019-05-20T10:16:23.888Z,47904.00
2019-05-20T10:17:23.880Z,32736.00
2019-05-20T10:18:36.716Z,47360.00
2019-05-20T10:19:24.853Z,99584.00
2019-05-20T10:20:23.856Z,92608.00
2019-05-20T10:21:23.833Z,89760.00
2019-05-20T10:22:23.827Z,50528.00
2019-05-20T10:23:23.815Z,42400.00
2019-05-20T10:24:23.805Z,58144.00
2019-05-20T10:25:23.793Z,80352.00
2019-05-20T10:26:23.789Z,58528.00
2019-05-20T10:27:23.774Z,103104.00
2019-05-20T10:28:23.763Z,107232.00
2019-05-20T10:29:23.755Z,108960.00
2019-05-20T10:30:23.748Z,113920.00
2019-05-20T10:31:23.755Z,109760.00
2019-05-20T10:32:23.727Z,104416.00
2019-05-20T10:33:23.714Z,106336.00
2019-05-20T10:34:23.706Z,43392.00
2019-05-20T10:35:23.693Z,82176.00
2019-05-20T10:36:23.702Z,72672.00
2019-05-20T10:37:23.673Z,60864.00
2019-05-20T10:38:23.695Z,63776.00
2019-05-20T10:39:23.655Z,62816.00
2019-05-20T10:40:23.642Z,70752.00
2019-05-20T10:41:23.687Z,85184.00
2019-05-20T10:42:23.625Z,83936.00
2019-05-20T10:43:23.610Z,79104.00
2019-05-20T10:44:23.603Z,51296.00
2019-05-20T10:45:23.615Z,42240.00
2019-05-20T10:46:23.596Z,45376.00
2019-05-20T10:47:23.568Z,37504.00
2019-05-20T10:48:23.560Z,37504.00
2019-05-20T10:49:23.551Z,32192.00
2019-05-20T10:50:23.542Z,23424.00
2019-05-20T10:51:23.531Z,20224.00
2019-05-20T10:52:23.526Z,18144.00
2019-05-20T10:53:23.510Z,16284.00
2019-05-20T10:54:23.502Z,14868.00
2019-05-20T10:55:23.572Z,13464.00
2019-05-20T10:56:23.480Z,12056.00
2019-05-20T10:57:23.469Z,10852.00
2019-05-20T10:58:23.462Z,9980.00
2019-05-20T10:59:23.447Z,9388.00
2019-05-20T11:00:23.445Z,9140.00
2019-05-20T11:01:23.435Z,9236.00
2019-05-20T11:02:23.419Z,9580.00
2019-05-20T11:03:23.410Z,10028.00
2019-05-20T11:04:23.403Z,10672.00
2019-05-20T11:05:23.424Z,11572.00
2019-05-20T11:06:23.376Z,12640.00
2019-05-20T11:07:23.366Z,13652.00
2019-05-20T11:08:23.353Z,14332.00
2019-05-20T11:09:23.344Z,14804.00
2019-05-20T11:10:23.332Z,15192.00
2019-05-20T11:11:23.321Z,15096.00
2019-05-20T11:12:23.353Z,14380.00
2019-05-20T11:13:23.305Z,13428.00
2019-05-20T11:14:23.336Z,12684.00
2019-05-20T11:15:23.281Z,11900.00
2019-05-20T11:16:23.269Z,11136.00
2019-05-20T11:17:23.258Z,10404.00
2019-05-20T11:18:23.254Z,9716.00
2019-05-20T11:19:23.238Z,9200.00
2019-05-20T11:20:23.226Z,9016.00
2019-05-20T11:21:23.217Z,9052.00
2019-05-20T11:22:23.205Z,9296.00
2019-05-20T11:23:23.196Z,9612.00
2019-05-20T11:24:23.182Z,9948.00
2019-05-20T11:25:23.184Z,10408.00
2019-05-20T11:26:23.163Z,10976.00
2019-05-20T11:27:23.153Z,11592.00
2019-05-20T11:28:23.139Z,12240.00
2019-05-20T11:29:23.131Z,12872.00
2019-05-20T11:30:23.120Z,13524.00
2019-05-20T11:31:23.113Z,14408.00
2019-05-20T11:32:23.126Z,15672.00
2019-05-20T11:33:23.098Z,17056.00
2019-05-20T11:34:23.084Z,18368.00
2019-05-20T11:35:23.067Z,19872.00
2019-05-20T11:36:23.057Z,21280.00
2019-05-20T11:37:23.048Z,21856.00
2019-05-20T11:38:23.031Z,22368.00
2019-05-20T11:39:33.402Z,21760.00
2019-05-20T11:40:24.012Z,20896.00
2019-05-20T11:41:51.310Z,19680.00
2019-05-20T11:42:23.992Z,18368.00
2019-05-20T11:43:22.981Z,17152.00
2019-05-20T11:44:22.967Z,16020.00
2019-05-20T11:45:22.956Z,15524.00
2019-05-20T11:46:22.946Z,15688.00
2019-05-20T11:47:22.945Z,16192.00
2019-05-20T11:48:22.925Z,17024.00
2019-05-20T11:49:22.916Z,17504.00
2019-05-20T11:50:22.905Z,17696.00
2019-05-20T11:51:22.893Z,17984.00
2019-05-20T11:52:22.884Z,18048.00
2019-05-20T11:53:22.871Z,18016.00
2019-05-20T11:54:22.866Z,17600.00
2019-05-20T11:55:22.864Z,17120.00
2019-05-20T11:56:22.845Z,16672.00
2019-05-20T11:57:22.844Z,16084.00
2019-05-20T11:58:22.819Z,15624.00
2019-05-20T11:59:22.809Z,15316.00
2019-05-20T12:00:22.797Z,14920.00
2019-05-20T12:01:22.785Z,14568.00
2019-05-20T12:02:22.784Z,14128.00
2019-05-20T12:03:22.770Z,13560.00
2019-05-20T12:04:22.754Z,12964.00
2019-05-20T12:05:22.820Z,12804.00
2019-05-20T12:06:22.734Z,13028.00
2019-05-20T12:07:22.723Z,13272.00
2019-05-20T12:08:22.711Z,13428.00
2019-05-20T12:09:22.703Z,12100.00
2019-05-20T12:10:22.689Z,11268.00